sensor_id;sensor_type;location;lat;lon;timestamp;P1;durP1;ratioP1;P2;durP2;ratioP2
71513;SDS011;59335;46.652;21.272;2023-05-10T00:01:36;4.30;;;1.93;;
71513;SDS011;59335;46.652;21.272;2023-05-10T00:04:39;4.80;;;2.10;;
71513;SDS011;59335;46.652;21.272;2023-05-10T00:07:41;4.07;;;1.83;;
71513;SDS011;59335;46.652;21.272;2023-05-10T00:10:47;5.32;;;2.20;;
71513;SDS011;59335;46.652;21.272;2023-05-10T00:13:49;5.40;;;2.20;;
71513;SDS011;59335;46.652;21.272;2023-05-10T00:16:52;4.70;;;1.90;;
71513;SDS011;59335;46.652;21.272;2023-05-10T00:19:55;4.05;;;1.83;;
71513;SDS011;59335;46.652;21.272;2023-05-10T00:22:58;4.47;;;2.08;;
71513;SDS011;59335;46.652;21.272;2023-05-10T00:26:00;5.63;;;2.20;;
71513;SDS011;59335;46.652;21.272;2023-05-10T00:29:03;5.00;;;1.92;;
71513;SDS011;59335;46.652;21.272;2023-05-10T00:32:05;4.27;;;2.00;;
71513;SDS011;59335;46.652;21.272;2023-05-10T00:35:08;4.80;;;2.05;;
71513;SDS011;59335;46.652;21.272;2023-05-10T00:38:11;4.78;;;2.10;;
71513;SDS011;59335;46.652;21.272;2023-05-10T00:41:15;4.90;;;2.03;;
71513;SDS011;59335;46.652;21.272;2023-05-10T00:44:20;4.95;;;2.10;;
71513;SDS011;59335;46.652;21.272;2023-05-10T00:47:23;4.70;;;2.00;;
71513;SDS011;59335;46.652;21.272;2023-05-10T00:50:26;4.97;;;1.88;;
71513;SDS011;59335;46.652;21.272;2023-05-10T00:53:28;4.68;;;2.00;;
71513;SDS011;59335;46.652;21.272;2023-05-10T00:56:34;5.25;;;2.33;;
71513;SDS011;59335;46.652;21.272;2023-05-10T00:59:37;4.70;;;2.05;;
71513;SDS011;59335;46.652;21.272;2023-05-10T01:02:39;4.63;;;1.90;;
71513;SDS011;59335;46.652;21.272;2023-05-10T01:05:43;5.18;;;2.10;;
71513;SDS011;59335;46.652;21.272;2023-05-10T01:08:45;4.68;;;1.90;;
71513;SDS011;59335;46.652;21.272;2023-05-10T01:11:49;4.60;;;2.10;;
71513;SDS011;59335;46.652;21.272;2023-05-10T01:14:52;5.10;;;2.25;;
71513;SDS011;59335;46.652;21.272;2023-05-10T01:17:56;4.20;;;1.90;;
71513;SDS011;59335;46.652;21.272;2023-05-10T01:21:03;5.80;;;2.28;;
71513;SDS011;59335;46.652;21.272;2023-05-10T01:34:09;5.07;;;1.93;;
71513;SDS011;59335;46.652;21.272;2023-05-10T01:37:21;4.72;;;2.00;;
71513;SDS011;59335;46.652;21.272;2023-05-10T01:44:05;4.43;;;2.00;;
71513;SDS011;59335;46.652;21.272;2023-05-10T01:47:22;4.90;;;2.33;;
71513;SDS011;59335;46.652;21.272;2023-05-10T01:50:36;4.87;;;2.03;;
71513;SDS011;59335;46.652;21.272;2023-05-10T01:53:42;4.22;;;1.92;;
71513;SDS011;59335;46.652;21.272;2023-05-10T01:56:47;4.78;;;2.08;;
71513;SDS011;59335;46.652;21.272;2023-05-10T01:59:52;6.03;;;2.25;;
71513;SDS011;59335;46.652;21.272;2023-05-10T02:02:57;4.78;;;2.00;;
71513;SDS011;59335;46.652;21.272;2023-05-10T02:06:02;4.40;;;2.03;;
71513;SDS011;59335;46.652;21.272;2023-05-10T02:09:06;4.20;;;2.03;;
71513;SDS011;59335;46.652;21.272;2023-05-10T02:12:11;4.78;;;2.33;;
71513;SDS011;59335;46.652;21.272;2023-05-10T02:15:17;4.53;;;2.10;;
71513;SDS011;59335;46.652;21.272;2023-05-10T02:18:24;4.07;;;2.10;;
71513;SDS011;59335;46.652;21.272;2023-05-10T02:21:30;4.87;;;2.20;;
71513;SDS011;59335;46.652;21.272;2023-05-10T02:24:35;4.32;;;2.00;;
71513;SDS011;59335;46.652;21.272;2023-05-10T02:27:39;4.90;;;2.03;;
71513;SDS011;59335;46.652;21.272;2023-05-10T02:30:44;3.55;;;1.88;;
71513;SDS011;59335;46.652;21.272;2023-05-10T02:33:49;5.22;;;2.25;;
71513;SDS011;59335;46.652;21.272;2023-05-10T02:36:53;5.37;;;2.30;;
71513;SDS011;59335;46.652;21.272;2023-05-10T02:39:56;5.63;;;2.08;;
71513;SDS011;59335;46.652;21.272;2023-05-10T02:43:01;5.40;;;2.20;;
71513;SDS011;59335;46.652;21.272;2023-05-10T02:46:05;5.10;;;2.25;;
71513;SDS011;59335;46.652;21.272;2023-05-10T02:49:10;4.68;;;2.28;;
71513;SDS011;59335;46.652;21.272;2023-05-10T02:52:14;5.03;;;2.40;;
71513;SDS011;59335;46.652;21.272;2023-05-10T02:55:22;4.30;;;2.00;;
71513;SDS011;59335;46.652;21.272;2023-05-10T02:58:30;5.18;;;2.40;;
71513;SDS011;59335;46.652;21.272;2023-05-10T03:01:32;5.00;;;2.20;;
71513;SDS011;59335;46.652;21.272;2023-05-10T03:04:35;4.60;;;1.90;;
71513;SDS011;59335;46.652;21.272;2023-05-10T03:07:38;4.40;;;2.20;;
71513;SDS011;59335;46.652;21.272;2023-05-10T03:10:45;4.50;;;2.20;;
71513;SDS011;59335;46.652;21.272;2023-05-10T03:14:01;4.70;;;2.13;;
71513;SDS011;59335;46.652;21.272;2023-05-10T03:17:25;4.55;;;1.92;;
71513;SDS011;59335;46.652;21.272;2023-05-10T03:20:41;4.90;;;1.92;;
71513;SDS011;59335;46.652;21.272;2023-05-10T03:23:47;4.80;;;2.37;;
71513;SDS011;59335;46.652;21.272;2023-05-10T03:27:00;5.07;;;2.00;;
71513;SDS011;59335;46.652;21.272;2023-05-10T03:30:07;4.88;;;2.47;;
71513;SDS011;59335;46.652;21.272;2023-05-10T03:33:12;4.40;;;2.05;;
71513;SDS011;59335;46.652;21.272;2023-05-10T03:36:19;4.78;;;2.33;;
71513;SDS011;59335;46.652;21.272;2023-05-10T03:39:21;5.20;;;2.23;;
71513;SDS011;59335;46.652;21.272;2023-05-10T03:42:28;4.90;;;2.10;;
71513;SDS011;59335;46.652;21.272;2023-05-10T03:45:31;5.30;;;2.40;;
71513;SDS011;59335;46.652;21.272;2023-05-10T03:48:34;5.85;;;2.65;;
71513;SDS011;59335;46.652;21.272;2023-05-10T03:51:37;5.82;;;2.80;;
71513;SDS011;59335;46.652;21.272;2023-05-10T03:54:39;5.97;;;2.70;;
71513;SDS011;59335;46.652;21.272;2023-05-10T03:57:42;6.55;;;2.60;;
71513;SDS011;59335;46.652;21.272;2023-05-10T04:00:45;6.22;;;2.85;;
71513;SDS011;59335;46.652;21.272;2023-05-10T04:03:49;6.20;;;2.50;;
71513;SDS011;59335;46.652;21.272;2023-05-10T04:06:52;5.57;;;2.42;;
71513;SDS011;59335;46.652;21.272;2023-05-10T04:09:54;6.10;;;2.50;;
71513;SDS011;59335;46.652;21.272;2023-05-10T04:12:57;5.93;;;2.55;;
71513;SDS011;59335;46.652;21.272;2023-05-10T04:16:00;5.88;;;2.60;;
71513;SDS011;59335;46.652;21.272;2023-05-10T04:19:03;6.25;;;2.60;;
71513;SDS011;59335;46.652;21.272;2023-05-10T04:22:06;5.50;;;2.50;;
71513;SDS011;59335;46.652;21.272;2023-05-10T04:25:08;6.47;;;2.50;;
71513;SDS011;59335;46.652;21.272;2023-05-10T04:28:11;7.13;;;2.47;;
71513;SDS011;59335;46.652;21.272;2023-05-10T04:31:14;6.40;;;2.60;;
71513;SDS011;59335;46.652;21.272;2023-05-10T04:34:17;5.65;;;2.60;;
71513;SDS011;59335;46.652;21.272;2023-05-10T04:37:19;4.82;;;2.50;;
71513;SDS011;59335;46.652;21.272;2023-05-10T04:40:23;5.27;;;2.27;;
71513;SDS011;59335;46.652;21.272;2023-05-10T04:43:26;5.78;;;2.58;;
71513;SDS011;59335;46.652;21.272;2023-05-10T04:46:28;6.40;;;2.80;;
71513;SDS011;59335;46.652;21.272;2023-05-10T04:49:31;5.25;;;2.50;;
71513;SDS011;59335;46.652;21.272;2023-05-10T04:52:34;5.65;;;2.55;;
71513;SDS011;59335;46.652;21.272;2023-05-10T04:55:37;5.47;;;2.10;;
71513;SDS011;59335;46.652;21.272;2023-05-10T04:58:40;6.28;;;2.50;;
71513;SDS011;59335;46.652;21.272;2023-05-10T05:01:43;6.03;;;2.60;;
71513;SDS011;59335;46.652;21.272;2023-05-10T05:04:45;5.70;;;2.30;;
71513;SDS011;59335;46.652;21.272;2023-05-10T05:07:48;5.03;;;2.35;;
71513;SDS011;59335;46.652;21.272;2023-05-10T05:10:51;5.30;;;2.37;;
71513;SDS011;59335;46.652;21.272;2023-05-10T05:13:54;4.88;;;2.38;;
71513;SDS011;59335;46.652;21.272;2023-05-10T05:16:58;4.75;;;2.30;;
71513;SDS011;59335;46.652;21.272;2023-05-10T05:20:01;5.45;;;2.42;;
71513;SDS011;59335;46.652;21.272;2023-05-10T05:23:04;4.95;;;2.53;;
71513;SDS011;59335;46.652;21.272;2023-05-10T05:26:13;5.30;;;2.07;;
71513;SDS011;59335;46.652;21.272;2023-05-10T05:29:23;5.85;;;2.63;;
71513;SDS011;59335;46.652;21.272;2023-05-10T05:32:26;6.65;;;2.47;;
71513;SDS011;59335;46.652;21.272;2023-05-10T05:35:29;5.82;;;2.30;;
71513;SDS011;59335;46.652;21.272;2023-05-10T05:38:32;5.20;;;2.40;;
71513;SDS011;59335;46.652;21.272;2023-05-10T05:41:34;7.57;;;2.23;;
71513;SDS011;59335;46.652;21.272;2023-05-10T05:44:37;7.15;;;2.67;;
71513;SDS011;59335;46.652;21.272;2023-05-10T05:47:40;6.45;;;2.60;;
71513;SDS011;59335;46.652;21.272;2023-05-10T05:50:43;5.40;;;2.22;;
71513;SDS011;59335;46.652;21.272;2023-05-10T05:53:46;9.90;;;2.60;;
71513;SDS011;59335;46.652;21.272;2023-05-10T05:56:48;5.70;;;2.10;;
71513;SDS011;59335;46.652;21.272;2023-05-10T05:59:51;7.68;;;2.15;;
71513;SDS011;59335;46.652;21.272;2023-05-10T06:02:55;7.57;;;2.20;;
71513;SDS011;59335;46.652;21.272;2023-05-10T06:05:58;7.55;;;2.30;;
71513;SDS011;59335;46.652;21.272;2023-05-10T06:09:00;6.43;;;2.45;;
71513;SDS011;59335;46.652;21.272;2023-05-10T06:12:03;6.87;;;2.40;;
71513;SDS011;59335;46.652;21.272;2023-05-10T06:15:07;8.05;;;2.20;;
71513;SDS011;59335;46.652;21.272;2023-05-10T06:18:10;7.05;;;2.15;;
71513;SDS011;59335;46.652;21.272;2023-05-10T06:21:16;7.15;;;2.20;;
71513;SDS011;59335;46.652;21.272;2023-05-10T06:24:30;9.25;;;2.35;;
71513;SDS011;59335;46.652;21.272;2023-05-10T06:27:33;4.97;;;2.20;;
71513;SDS011;59335;46.652;21.272;2023-05-10T06:30:37;7.63;;;2.42;;
71513;SDS011;59335;46.652;21.272;2023-05-10T06:33:39;8.98;;;2.53;;
71513;SDS011;59335;46.652;21.272;2023-05-10T06:36:43;7.10;;;2.30;;
71513;SDS011;59335;46.652;21.272;2023-05-10T06:39:47;10.70;;;2.38;;
71513;SDS011;59335;46.652;21.272;2023-05-10T06:42:51;6.00;;;2.33;;
71513;SDS011;59335;46.652;21.272;2023-05-10T06:46:00;8.27;;;2.42;;
71513;SDS011;59335;46.652;21.272;2023-05-10T06:49:11;7.53;;;2.40;;
71513;SDS011;59335;46.652;21.272;2023-05-10T06:52:14;10.00;;;2.45;;
71513;SDS011;59335;46.652;21.272;2023-05-10T06:55:43;9.73;;;2.72;;
71513;SDS011;59335;46.652;21.272;2023-05-10T06:59:18;8.47;;;2.40;;
71513;SDS011;59335;46.652;21.272;2023-05-10T07:02:35;7.82;;;2.53;;
71513;SDS011;59335;46.652;21.272;2023-05-10T07:05:39;6.80;;;2.40;;
71513;SDS011;59335;46.652;21.272;2023-05-10T07:08:41;6.97;;;2.60;;
71513;SDS011;59335;46.652;21.272;2023-05-10T07:11:45;7.63;;;2.38;;
71513;SDS011;59335;46.652;21.272;2023-05-10T07:14:51;7.03;;;2.10;;
71513;SDS011;59335;46.652;21.272;2023-05-10T07:17:56;7.28;;;2.40;;
71513;SDS011;59335;46.652;21.272;2023-05-10T07:20:59;9.23;;;2.63;;
71513;SDS011;59335;46.652;21.272;2023-05-10T07:24:02;6.45;;;2.17;;
71513;SDS011;59335;46.652;21.272;2023-05-10T07:27:04;7.65;;;2.75;;
71513;SDS011;59335;46.652;21.272;2023-05-10T07:30:08;6.60;;;1.93;;
71513;SDS011;59335;46.652;21.272;2023-05-10T07:33:13;8.73;;;2.30;;
71513;SDS011;59335;46.652;21.272;2023-05-10T07:36:16;9.65;;;2.22;;
71513;SDS011;59335;46.652;21.272;2023-05-10T07:39:19;7.57;;;1.95;;
71513;SDS011;59335;46.652;21.272;2023-05-10T07:42:30;9.30;;;2.47;;
71513;SDS011;59335;46.652;21.272;2023-05-10T07:45:33;4.10;;;1.93;;
71513;SDS011;59335;46.652;21.272;2023-05-10T07:48:36;11.57;;;2.58;;
71513;SDS011;59335;46.652;21.272;2023-05-10T07:51:39;5.40;;;2.10;;
71513;SDS011;59335;46.652;21.272;2023-05-10T07:54:42;8.35;;;2.38;;
71513;SDS011;59335;46.652;21.272;2023-05-10T07:57:45;7.25;;;2.50;;
71513;SDS011;59335;46.652;21.272;2023-05-10T08:00:47;9.97;;;2.17;;
71513;SDS011;59335;46.652;21.272;2023-05-10T08:03:54;5.88;;;2.05;;
71513;SDS011;59335;46.652;21.272;2023-05-10T08:07:07;8.05;;;2.35;;
71513;SDS011;59335;46.652;21.272;2023-05-10T08:10:34;4.70;;;2.08;;
71513;SDS011;59335;46.652;21.272;2023-05-10T08:13:37;6.40;;;2.00;;
71513;SDS011;59335;46.652;21.272;2023-05-10T08:16:40;9.40;;;2.23;;
71513;SDS011;59335;46.652;21.272;2023-05-10T08:19:42;6.57;;;2.22;;
71513;SDS011;59335;46.652;21.272;2023-05-10T08:22:45;4.85;;;1.80;;
71513;SDS011;59335;46.652;21.272;2023-05-10T08:25:51;6.07;;;2.00;;
71513;SDS011;59335;46.652;21.272;2023-05-10T08:28:53;5.78;;;1.77;;
71513;SDS011;59335;46.652;21.272;2023-05-10T08:31:58;6.17;;;2.17;;
71513;SDS011;59335;46.652;21.272;2023-05-10T08:35:01;7.07;;;1.88;;
71513;SDS011;59335;46.652;21.272;2023-05-10T08:38:05;7.60;;;2.00;;
71513;SDS011;59335;46.652;21.272;2023-05-10T08:41:08;6.93;;;1.90;;
71513;SDS011;59335;46.652;21.272;2023-05-10T08:44:13;7.38;;;2.20;;
71513;SDS011;59335;46.652;21.272;2023-05-10T08:47:18;7.60;;;2.13;;
71513;SDS011;59335;46.652;21.272;2023-05-10T08:50:22;4.50;;;1.70;;
71513;SDS011;59335;46.652;21.272;2023-05-10T08:53:26;5.47;;;1.88;;
71513;SDS011;59335;46.652;21.272;2023-05-10T08:56:31;10.43;;;2.03;;
71513;SDS011;59335;46.652;21.272;2023-05-10T08:59:43;4.85;;;1.92;;
71513;SDS011;59335;46.652;21.272;2023-05-10T09:02:59;3.77;;;1.50;;
71513;SDS011;59335;46.652;21.272;2023-05-10T09:06:04;5.95;;;1.50;;
71513;SDS011;59335;46.652;21.272;2023-05-10T09:09:07;6.97;;;1.77;;
71513;SDS011;59335;46.652;21.272;2023-05-10T09:12:11;3.92;;;1.40;;
71513;SDS011;59335;46.652;21.272;2023-05-10T09:15:17;6.13;;;1.60;;
71513;SDS011;59335;46.652;21.272;2023-05-10T09:18:22;4.53;;;1.80;;
71513;SDS011;59335;46.652;21.272;2023-05-10T09:21:29;2.67;;;1.38;;
71513;SDS011;59335;46.652;21.272;2023-05-10T09:24:33;3.97;;;1.63;;
71513;SDS011;59335;46.652;21.272;2023-05-10T09:27:36;3.28;;;1.50;;
71513;SDS011;59335;46.652;21.272;2023-05-10T09:30:41;4.68;;;1.45;;
71513;SDS011;59335;46.652;21.272;2023-05-10T09:33:54;3.40;;;1.23;;
71513;SDS011;59335;46.652;21.272;2023-05-10T09:36:57;4.00;;;1.40;;
71513;SDS011;59335;46.652;21.272;2023-05-10T09:40:07;3.03;;;1.45;;
71513;SDS011;59335;46.652;21.272;2023-05-10T09:43:14;3.75;;;1.40;;
71513;SDS011;59335;46.652;21.272;2023-05-10T09:46:17;3.13;;;1.50;;
71513;SDS011;59335;46.652;21.272;2023-05-10T09:49:24;4.10;;;1.60;;
71513;SDS011;59335;46.652;21.272;2023-05-10T09:52:31;2.72;;;1.30;;
71513;SDS011;59335;46.652;21.272;2023-05-10T09:55:53;5.20;;;1.33;;
71513;SDS011;59335;46.652;21.272;2023-05-10T09:59:04;1.55;;;1.10;;
71513;SDS011;59335;46.652;21.272;2023-05-10T10:02:18;2.97;;;1.40;;
71513;SDS011;59335;46.652;21.272;2023-05-10T10:05:32;2.70;;;1.20;;
71513;SDS011;59335;46.652;21.272;2023-05-10T10:08:36;2.55;;;1.30;;
71513;SDS011;59335;46.652;21.272;2023-05-10T10:11:40;3.38;;;1.30;;
71513;SDS011;59335;46.652;21.272;2023-05-10T10:14:43;2.90;;;1.23;;
71513;SDS011;59335;46.652;21.272;2023-05-10T10:17:48;2.33;;;1.20;;
71513;SDS011;59335;46.652;21.272;2023-05-10T10:20:51;2.50;;;1.43;;
71513;SDS011;59335;46.652;21.272;2023-05-10T10:23:55;2.20;;;1.10;;
71513;SDS011;59335;46.652;21.272;2023-05-10T10:27:07;3.53;;;1.38;;
71513;SDS011;59335;46.652;21.272;2023-05-10T10:37:06;3.67;;;1.30;;
71513;SDS011;59335;46.652;21.272;2023-05-10T10:40:30;3.15;;;1.30;;
71513;SDS011;59335;46.652;21.272;2023-05-10T10:43:36;3.95;;;1.40;;
71513;SDS011;59335;46.652;21.272;2023-05-10T10:50:04;2.97;;;1.20;;
71513;SDS011;59335;46.652;21.272;2023-05-10T10:53:12;2.90;;;1.33;;
71513;SDS011;59335;46.652;21.272;2023-05-10T10:56:23;4.25;;;1.30;;
71513;SDS011;59335;46.652;21.272;2023-05-10T10:59:27;3.65;;;1.33;;
71513;SDS011;59335;46.652;21.272;2023-05-10T11:02:53;5.82;;;1.50;;
71513;SDS011;59335;46.652;21.272;2023-05-10T11:06:00;7.55;;;1.60;;
71513;SDS011;59335;46.652;21.272;2023-05-10T11:09:10;2.83;;;1.30;;
71513;SDS011;59335;46.652;21.272;2023-05-10T11:12:14;6.45;;;1.30;;
71513;SDS011;59335;46.652;21.272;2023-05-10T11:15:19;4.50;;;1.52;;
71513;SDS011;59335;46.652;21.272;2023-05-10T11:18:27;6.47;;;1.52;;
71513;SDS011;59335;46.652;21.272;2023-05-10T11:21:31;7.28;;;1.35;;
71513;SDS011;59335;46.652;21.272;2023-05-10T11:24:35;4.13;;;1.27;;
71513;SDS011;59335;46.652;21.272;2023-05-10T11:27:42;3.33;;;1.40;;
71513;SDS011;59335;46.652;21.272;2023-05-10T11:30:45;4.40;;;1.45;;
71513;SDS011;59335;46.652;21.272;2023-05-10T11:33:52;5.75;;;1.48;;
71513;SDS011;59335;46.652;21.272;2023-05-10T11:36:56;6.63;;;1.77;;
71513;SDS011;59335;46.652;21.272;2023-05-10T11:40:08;4.03;;;1.50;;
71513;SDS011;59335;46.652;21.272;2023-05-10T11:43:12;4.55;;;1.50;;
71513;SDS011;59335;46.652;21.272;2023-05-10T11:46:15;6.47;;;1.60;;
71513;SDS011;59335;46.652;21.272;2023-05-10T11:49:22;5.28;;;1.60;;
71513;SDS011;59335;46.652;21.272;2023-05-10T11:52:27;6.43;;;1.67;;
71513;SDS011;59335;46.652;21.272;2023-05-10T11:55:32;5.90;;;1.43;;
71513;SDS011;59335;46.652;21.272;2023-05-10T11:58:36;3.58;;;1.23;;
71513;SDS011;59335;46.652;21.272;2023-05-10T12:01:41;4.65;;;1.48;;
71513;SDS011;59335;46.652;21.272;2023-05-10T12:08:44;7.50;;;1.70;;
71513;SDS011;59335;46.652;21.272;2023-05-10T12:11:48;5.83;;;1.40;;
71513;SDS011;59335;46.652;21.272;2023-05-10T12:14:51;6.28;;;1.67;;
71513;SDS011;59335;46.652;21.272;2023-05-10T12:17:54;4.43;;;1.70;;
71513;SDS011;59335;46.652;21.272;2023-05-10T12:21:02;7.07;;;1.50;;
71513;SDS011;59335;46.652;21.272;2023-05-10T12:24:07;5.25;;;1.50;;
71513;SDS011;59335;46.652;21.272;2023-05-10T12:27:10;4.07;;;1.60;;
71513;SDS011;59335;46.652;21.272;2023-05-10T12:30:32;5.55;;;1.40;;
71513;SDS011;59335;46.652;21.272;2023-05-10T12:33:38;5.28;;;1.60;;
71513;SDS011;59335;46.652;21.272;2023-05-10T12:36:49;6.57;;;1.23;;
71513;SDS011;59335;46.652;21.272;2023-05-10T12:39:53;4.60;;;1.70;;
71513;SDS011;59335;46.652;21.272;2023-05-10T12:42:56;4.60;;;1.70;;
71513;SDS011;59335;46.652;21.272;2023-05-10T12:46:03;7.20;;;1.55;;
71513;SDS011;59335;46.652;21.272;2023-05-10T12:49:10;5.75;;;1.50;;
71513;SDS011;59335;46.652;21.272;2023-05-10T12:52:13;5.97;;;1.50;;
71513;SDS011;59335;46.652;21.272;2023-05-10T12:55:15;4.82;;;1.40;;
71513;SDS011;59335;46.652;21.272;2023-05-10T12:58:18;3.73;;;1.67;;
71513;SDS011;59335;46.652;21.272;2023-05-10T13:01:36;5.65;;;1.50;;
71513;SDS011;59335;46.652;21.272;2023-05-10T13:04:39;4.63;;;1.73;;
71513;SDS011;59335;46.652;21.272;2023-05-10T13:07:42;4.82;;;1.30;;
71513;SDS011;59335;46.652;21.272;2023-05-10T13:10:47;5.25;;;1.52;;
71513;SDS011;59335;46.652;21.272;2023-05-10T13:13:53;4.20;;;1.40;;
71513;SDS011;59335;46.652;21.272;2023-05-10T13:16:55;4.60;;;1.38;;
71513;SDS011;59335;46.652;21.272;2023-05-10T13:19:58;7.72;;;1.65;;
71513;SDS011;59335;46.652;21.272;2023-05-10T13:23:01;7.55;;;1.70;;
71513;SDS011;59335;46.652;21.272;2023-05-10T13:26:05;6.75;;;1.80;;
71513;SDS011;59335;46.652;21.272;2023-05-10T13:29:09;4.20;;;1.30;;
71513;SDS011;59335;46.652;21.272;2023-05-10T13:32:13;7.18;;;2.15;;
71513;SDS011;59335;46.652;21.272;2023-05-10T13:35:17;6.35;;;1.35;;
71513;SDS011;59335;46.652;21.272;2023-05-10T13:38:20;6.93;;;1.40;;
71513;SDS011;59335;46.652;21.272;2023-05-10T13:41:23;3.97;;;1.63;;
71513;SDS011;59335;46.652;21.272;2023-05-10T13:44:26;3.80;;;1.53;;
71513;SDS011;59335;46.652;21.272;2023-05-10T13:47:30;4.00;;;1.48;;
71513;SDS011;59335;46.652;21.272;2023-05-10T13:50:33;9.15;;;1.48;;
71513;SDS011;59335;46.652;21.272;2023-05-10T13:53:35;6.55;;;2.30;;
71513;SDS011;59335;46.652;21.272;2023-05-10T13:56:39;5.97;;;1.50;;
71513;SDS011;59335;46.652;21.272;2023-05-10T13:59:46;5.83;;;1.40;;
71513;SDS011;59335;46.652;21.272;2023-05-10T14:02:49;4.35;;;1.70;;
71513;SDS011;59335;46.652;21.272;2023-05-10T14:05:52;3.97;;;1.50;;
71513;SDS011;59335;46.652;21.272;2023-05-10T14:08:56;5.97;;;1.63;;
71513;SDS011;59335;46.652;21.272;2023-05-10T14:11:59;5.50;;;1.55;;
71513;SDS011;59335;46.652;21.272;2023-05-10T14:15:01;6.77;;;1.80;;
71513;SDS011;59335;46.652;21.272;2023-05-10T14:18:04;7.30;;;1.75;;
71513;SDS011;59335;46.652;21.272;2023-05-10T14:21:07;5.72;;;1.75;;
71513;SDS011;59335;46.652;21.272;2023-05-10T14:24:09;6.00;;;1.42;;
71513;SDS011;59335;46.652;21.272;2023-05-10T14:27:12;8.05;;;1.90;;
71513;SDS011;59335;46.652;21.272;2023-05-10T14:30:15;6.77;;;1.60;;
71513;SDS011;59335;46.652;21.272;2023-05-10T14:33:18;5.93;;;1.80;;
71513;SDS011;59335;46.652;21.272;2023-05-10T14:36:21;11.20;;;2.28;;
71513;SDS011;59335;46.652;21.272;2023-05-10T14:39:24;7.75;;;1.70;;
71513;SDS011;59335;46.652;21.272;2023-05-10T14:42:27;9.05;;;2.00;;
71513;SDS011;59335;46.652;21.272;2023-05-10T14:45:30;8.37;;;1.77;;
71513;SDS011;59335;46.652;21.272;2023-05-10T14:48:33;6.88;;;1.92;;
71513;SDS011;59335;46.652;21.272;2023-05-10T14:51:36;6.22;;;1.83;;
71513;SDS011;59335;46.652;21.272;2023-05-10T14:54:39;8.75;;;1.95;;
71513;SDS011;59335;46.652;21.272;2023-05-10T14:57:42;9.93;;;2.20;;
71513;SDS011;59335;46.652;21.272;2023-05-10T15:00:46;6.57;;;1.77;;
71513;SDS011;59335;46.652;21.272;2023-05-10T15:03:49;8.55;;;2.00;;
71513;SDS011;59335;46.652;21.272;2023-05-10T15:06:53;8.40;;;1.90;;
71513;SDS011;59335;46.652;21.272;2023-05-10T15:10:01;10.48;;;2.17;;
71513;SDS011;59335;46.652;21.272;2023-05-10T15:13:04;9.57;;;2.28;;
71513;SDS011;59335;46.652;21.272;2023-05-10T15:16:08;9.67;;;1.90;;
71513;SDS011;59335;46.652;21.272;2023-05-10T15:19:11;7.25;;;1.85;;
71513;SDS011;59335;46.652;21.272;2023-05-10T15:22:13;8.90;;;2.00;;
71513;SDS011;59335;46.652;21.272;2023-05-10T15:25:16;7.47;;;2.13;;
71513;SDS011;59335;46.652;21.272;2023-05-10T15:28:19;7.40;;;1.75;;
71513;SDS011;59335;46.652;21.272;2023-05-10T15:31:22;7.07;;;1.70;;
71513;SDS011;59335;46.652;21.272;2023-05-10T15:34:24;5.53;;;1.63;;
71513;SDS011;59335;46.652;21.272;2023-05-10T15:37:27;8.65;;;2.10;;
71513;SDS011;59335;46.652;21.272;2023-05-10T15:40:30;7.38;;;1.85;;
71513;SDS011;59335;46.652;21.272;2023-05-10T15:43:32;8.82;;;2.05;;
71513;SDS011;59335;46.652;21.272;2023-05-10T15:46:35;7.03;;;2.00;;
71513;SDS011;59335;46.652;21.272;2023-05-10T15:49:39;10.02;;;2.63;;
71513;SDS011;59335;46.652;21.272;2023-05-10T15:52:42;10.13;;;2.65;;
71513;SDS011;59335;46.652;21.272;2023-05-10T15:55:45;8.07;;;2.55;;
71513;SDS011;59335;46.652;21.272;2023-05-10T15:58:47;8.65;;;2.20;;
71513;SDS011;59335;46.652;21.272;2023-05-10T16:01:50;5.77;;;1.90;;
71513;SDS011;59335;46.652;21.272;2023-05-10T16:04:54;5.95;;;2.30;;
71513;SDS011;59335;46.652;21.272;2023-05-10T16:07:56;8.38;;;2.28;;
71513;SDS011;59335;46.652;21.272;2023-05-10T16:10:59;8.48;;;2.00;;
71513;SDS011;59335;46.652;21.272;2023-05-10T16:14:02;9.02;;;2.10;;
71513;SDS011;59335;46.652;21.272;2023-05-10T16:17:06;8.63;;;2.33;;
71513;SDS011;59335;46.652;21.272;2023-05-10T16:20:09;7.70;;;2.22;;
71513;SDS011;59335;46.652;21.272;2023-05-10T16:23:12;8.35;;;2.33;;
71513;SDS011;59335;46.652;21.272;2023-05-10T16:26:16;9.65;;;2.45;;
71513;SDS011;59335;46.652;21.272;2023-05-10T16:29:18;7.03;;;2.35;;
71513;SDS011;59335;46.652;21.272;2023-05-10T16:32:21;8.10;;;2.40;;
71513;SDS011;59335;46.652;21.272;2023-05-10T16:35:24;6.90;;;2.40;;
71513;SDS011;59335;46.652;21.272;2023-05-10T16:38:27;6.22;;;2.10;;
71513;SDS011;59335;46.652;21.272;2023-05-10T16:41:33;6.55;;;2.30;;
71513;SDS011;59335;46.652;21.272;2023-05-10T16:44:36;6.13;;;1.90;;
71513;SDS011;59335;46.652;21.272;2023-05-10T16:47:38;9.73;;;2.10;;
71513;SDS011;59335;46.652;21.272;2023-05-10T16:50:42;5.13;;;2.08;;
71513;SDS011;59335;46.652;21.272;2023-05-10T16:53:45;5.97;;;2.20;;
71513;SDS011;59335;46.652;21.272;2023-05-10T16:56:48;5.95;;;2.05;;
71513;SDS011;59335;46.652;21.272;2023-05-10T16:59:50;9.05;;;2.10;;
71513;SDS011;59335;46.652;21.272;2023-05-10T17:02:54;7.30;;;1.87;;
71513;SDS011;59335;46.652;21.272;2023-05-10T17:05:57;5.85;;;2.05;;
71513;SDS011;59335;46.652;21.272;2023-05-10T17:09:00;4.93;;;2.00;;
71513;SDS011;59335;46.652;21.272;2023-05-10T17:12:02;7.18;;;2.05;;
71513;SDS011;59335;46.652;21.272;2023-05-10T17:15:05;6.70;;;2.03;;
71513;SDS011;59335;46.652;21.272;2023-05-10T17:18:09;6.37;;;1.90;;
71513;SDS011;59335;46.652;21.272;2023-05-10T17:21:12;6.90;;;1.73;;
71513;SDS011;59335;46.652;21.272;2023-05-10T17:24:14;6.47;;;1.70;;
71513;SDS011;59335;46.652;21.272;2023-05-10T17:27:17;8.50;;;2.15;;
71513;SDS011;59335;46.652;21.272;2023-05-10T17:30:19;6.30;;;2.03;;
71513;SDS011;59335;46.652;21.272;2023-05-10T17:33:27;6.87;;;1.80;;
71513;SDS011;59335;46.652;21.272;2023-05-10T17:36:29;6.80;;;2.00;;
71513;SDS011;59335;46.652;21.272;2023-05-10T17:39:32;6.13;;;1.90;;
71513;SDS011;59335;46.652;21.272;2023-05-10T17:42:35;7.95;;;2.00;;
71513;SDS011;59335;46.652;21.272;2023-05-10T17:45:38;5.65;;;1.95;;
71513;SDS011;59335;46.652;21.272;2023-05-10T17:48:40;5.87;;;2.13;;
71513;SDS011;59335;46.652;21.272;2023-05-10T17:51:43;7.43;;;2.10;;
71513;SDS011;59335;46.652;21.272;2023-05-10T17:54:49;6.07;;;2.22;;
71513;SDS011;59335;46.652;21.272;2023-05-10T17:57:51;6.97;;;2.38;;
71513;SDS011;59335;46.652;21.272;2023-05-10T18:00:54;6.55;;;2.10;;
71513;SDS011;59335;46.652;21.272;2023-05-10T18:03:58;6.43;;;2.10;;
71513;SDS011;59335;46.652;21.272;2023-05-10T18:07:01;4.22;;;1.85;;
71513;SDS011;59335;46.652;21.272;2023-05-10T18:10:04;4.85;;;1.92;;
71513;SDS011;59335;46.652;21.272;2023-05-10T18:13:08;6.25;;;1.98;;
71513;SDS011;59335;46.652;21.272;2023-05-10T18:16:10;5.93;;;1.95;;
71513;SDS011;59335;46.652;21.272;2023-05-10T18:19:14;5.10;;;1.97;;
71513;SDS011;59335;46.652;21.272;2023-05-10T18:22:18;4.38;;;1.77;;
71513;SDS011;59335;46.652;21.272;2023-05-10T18:25:22;6.70;;;2.00;;
71513;SDS011;59335;46.652;21.272;2023-05-10T18:28:25;5.47;;;1.90;;
71513;SDS011;59335;46.652;21.272;2023-05-10T18:31:29;5.15;;;2.00;;
71513;SDS011;59335;46.652;21.272;2023-05-10T18:34:33;5.03;;;2.10;;
71513;SDS011;59335;46.652;21.272;2023-05-10T18:37:37;4.60;;;1.70;;
71513;SDS011;59335;46.652;21.272;2023-05-10T18:40:41;5.03;;;1.95;;
71513;SDS011;59335;46.652;21.272;2023-05-10T18:43:44;6.82;;;1.98;;